createdAt,value
2019-03-23T00:00:55.992Z,15.47
2019-03-23T00:03:22.345Z,13.97
2019-03-23T00:05:48.663Z,14.03
2019-03-23T00:08:14.910Z,14.70
2019-03-23T00:10:41.170Z,13.07
2019-03-23T00:13:07.477Z,14.00
2019-03-23T00:15:33.743Z,15.10
2019-03-23T00:18:00.032Z,14.43
2019-03-23T00:20:26.317Z,14.13
2019-03-23T00:22:52.580Z,16.53
2019-03-23T00:25:18.874Z,15.17
2019-03-23T00:27:45.148Z,14.20
2019-03-23T00:30:12.514Z,14.80
2019-03-23T00:32:38.800Z,13.90
2019-03-23T00:35:05.921Z,15.77
2019-03-23T00:37:33.473Z,13.60
2019-03-23T00:39:59.844Z,14.70
2019-03-23T00:42:26.097Z,16.53
2019-03-23T00:44:52.386Z,13.13
2019-03-23T00:47:18.659Z,15.03
2019-03-23T00:49:44.929Z,14.90
2019-03-23T00:52:11.211Z,13.53
2019-03-23T00:54:37.453Z,14.00
2019-03-23T00:57:03.738Z,14.40
2019-03-23T00:59:30.011Z,14.60
2019-03-23T01:01:56.275Z,13.13
2019-03-23T01:04:22.551Z,14.80
2019-03-23T01:06:52.389Z,13.67
2019-03-23T01:09:17.137Z,14.63
2019-03-23T01:11:43.406Z,14.70
2019-03-23T01:14:09.654Z,12.47
2019-03-23T01:16:35.917Z,12.07
2019-03-23T01:19:02.391Z,13.60
2019-03-23T01:21:28.656Z,15.03
2019-03-23T01:23:54.926Z,12.93
2019-03-23T01:26:21.270Z,13.07
2019-03-23T01:28:47.541Z,11.83
2019-03-23T01:31:13.792Z,12.93
2019-03-23T01:33:40.080Z,14.33
2019-03-23T01:36:06.356Z,12.80
2019-03-23T01:38:32.608Z,12.37
2019-03-23T01:40:58.906Z,13.00
2019-03-23T01:43:25.236Z,13.07
2019-03-23T01:45:51.503Z,12.43
2019-03-23T01:48:17.781Z,12.20
2019-03-23T01:50:44.048Z,13.73
2019-03-23T01:53:10.344Z,11.23
2019-03-23T01:55:36.606Z,12.70
2019-03-23T01:58:22.750Z,13.83
2019-03-23T02:01:02.608Z,13.27
2019-03-23T02:03:28.852Z,14.07
2019-03-23T02:05:55.123Z,14.20
2019-03-23T02:08:21.395Z,12.10
2019-03-23T02:10:47.683Z,13.03
2019-03-23T02:13:13.948Z,11.70
2019-03-23T02:15:40.211Z,11.60
2019-03-23T02:18:07.138Z,11.77
2019-03-23T02:20:33.397Z,12.60
2019-03-23T02:22:59.660Z,11.57
2019-03-23T02:25:25.930Z,12.20
2019-03-23T02:27:52.193Z,12.27
2019-03-23T02:30:18.548Z,11.90
2019-03-23T02:32:44.811Z,11.87
2019-03-23T02:35:11.337Z,10.80
2019-03-23T02:37:37.588Z,11.33
2019-03-23T02:40:07.582Z,11.47
2019-03-23T02:42:33.852Z,11.67
2019-03-23T02:45:14.748Z,12.20
2019-03-23T02:47:41.026Z,10.57
2019-03-23T02:50:08.881Z,11.67
2019-03-23T02:52:36.304Z,10.70
2019-03-23T02:55:06.688Z,10.83
2019-03-23T02:57:32.948Z,11.23
2019-03-23T02:59:59.244Z,12.33
2019-03-23T03:02:25.506Z,12.23
2019-03-23T03:04:51.780Z,12.27
2019-03-23T03:07:18.056Z,12.07
2019-03-23T03:09:44.350Z,11.00
2019-03-23T03:12:10.653Z,11.20
2019-03-23T03:14:36.922Z,10.73
2019-03-23T03:17:03.424Z,10.97
2019-03-23T03:19:29.703Z,10.57
2019-03-23T03:21:55.975Z,10.80
2019-03-23T03:24:22.236Z,11.57
2019-03-23T03:26:48.550Z,10.90
2019-03-23T03:29:14.802Z,11.00
2019-03-23T03:31:41.121Z,10.40
2019-03-23T03:34:07.348Z,11.50
2019-03-23T03:36:33.625Z,11.57
2019-03-23T03:38:59.891Z,10.50
2019-03-23T03:41:26.367Z,11.57
2019-03-23T03:43:52.779Z,10.97
2019-03-23T03:46:19.030Z,11.60
2019-03-23T03:48:45.328Z,11.13
2019-03-23T03:51:11.570Z,10.10
2019-03-23T03:53:37.850Z,10.57
2019-03-23T03:56:04.106Z,10.70
2019-03-23T03:58:30.359Z,11.67
2019-03-23T04:00:56.691Z,10.23
2019-03-23T04:03:22.954Z,10.00
2019-03-23T04:05:49.214Z,10.77
2019-03-23T04:08:15.503Z,10.50
2019-03-23T04:10:41.752Z,9.37
2019-03-23T04:13:08.003Z,9.93
2019-03-23T04:15:34.298Z,9.90
2019-03-23T04:18:00.978Z,10.13
2019-03-23T04:20:27.521Z,9.40
2019-03-23T04:22:53.762Z,9.57
2019-03-23T04:25:20.043Z,10.03
2019-03-23T04:27:46.438Z,8.20
2019-03-23T04:30:13.002Z,10.00
2019-03-23T04:32:39.244Z,9.53
2019-03-23T04:35:06.260Z,9.43
2019-03-23T04:37:32.638Z,10.87
2019-03-23T04:39:58.894Z,9.77
2019-03-23T04:42:25.188Z,9.20
2019-03-23T04:44:51.449Z,10.73
2019-03-23T04:47:17.693Z,9.70
2019-03-23T04:49:43.969Z,10.03
2019-03-23T04:52:10.293Z,11.07
2019-03-23T04:54:38.939Z,10.60
2019-03-23T04:57:05.371Z,10.03
2019-03-23T04:59:31.659Z,10.97
2019-03-23T05:01:57.934Z,11.13
2019-03-23T05:04:24.259Z,9.50
2019-03-23T05:06:50.524Z,11.10
2019-03-23T05:09:16.839Z,8.80
2019-03-23T05:11:43.099Z,10.60
2019-03-23T05:14:09.338Z,8.73
2019-03-23T05:16:35.609Z,9.20
2019-03-23T05:19:01.872Z,9.87
2019-03-23T05:21:28.126Z,8.93
2019-03-23T05:23:54.395Z,8.77
2019-03-23T05:26:20.716Z,8.33
2019-03-23T05:28:46.987Z,9.10
2019-03-23T05:31:13.358Z,8.23
2019-03-23T05:33:39.626Z,9.90
2019-03-23T05:36:06.966Z,9.67
2019-03-23T05:38:43.606Z,9.67
2019-03-23T05:41:01.450Z,9.40
2019-03-23T05:43:27.750Z,8.00
2019-03-23T05:45:54.032Z,8.33
2019-03-23T05:48:20.306Z,8.47
2019-03-23T05:50:46.569Z,8.67
2019-03-23T05:53:12.967Z,7.90
2019-03-23T05:55:39.223Z,7.97
2019-03-23T05:58:05.480Z,9.37
2019-03-23T06:00:31.893Z,9.77
2019-03-23T06:02:58.243Z,8.37
2019-03-23T06:05:24.763Z,9.10
2019-03-23T06:07:51.101Z,9.40
2019-03-23T06:10:17.363Z,8.70
2019-03-23T06:12:43.662Z,9.20
2019-03-23T06:15:10.338Z,8.87
2019-03-23T06:17:36.726Z,9.03
2019-03-23T06:20:06.610Z,9.47
2019-03-23T06:22:32.875Z,10.70
2019-03-23T06:24:59.169Z,10.43
2019-03-23T06:27:25.422Z,10.40
2019-03-23T06:29:51.682Z,10.40
2019-03-23T06:32:17.980Z,9.70
2019-03-23T06:34:44.329Z,10.30
2019-03-23T06:37:10.692Z,10.13
2019-03-23T06:39:36.986Z,10.30
2019-03-23T06:42:03.454Z,9.50
2019-03-23T06:44:29.890Z,9.00
2019-03-23T06:46:56.157Z,8.43
2019-03-23T06:49:22.430Z,9.80
2019-03-23T06:51:48.823Z,9.43
2019-03-23T06:54:15.286Z,9.10
2019-03-23T06:56:41.529Z,8.70
2019-03-23T06:59:07.798Z,8.90
2019-03-23T07:01:34.073Z,8.80
2019-03-23T07:04:00.355Z,8.07
2019-03-23T07:06:26.612Z,8.47
2019-03-23T07:08:52.985Z,8.60
2019-03-23T07:11:19.319Z,8.03
2019-03-23T07:13:45.561Z,6.83
2019-03-23T07:16:11.825Z,8.20
2019-03-23T07:18:38.123Z,7.80
2019-03-23T07:21:04.419Z,7.07
2019-03-23T07:23:30.701Z,7.67
2019-03-23T07:25:57.012Z,8.80
2019-03-23T07:28:23.322Z,8.47
2019-03-23T07:30:49.612Z,7.13
2019-03-23T07:33:15.923Z,9.03
2019-03-23T07:35:42.184Z,6.80
2019-03-23T07:38:08.479Z,7.97
2019-03-23T07:40:34.899Z,7.37
2019-03-23T07:43:01.262Z,7.80
2019-03-23T07:45:27.552Z,8.27
2019-03-23T07:47:53.853Z,8.43
2019-03-23T07:50:20.155Z,8.93
2019-03-23T07:52:46.452Z,6.93
2019-03-23T07:55:15.873Z,8.30
2019-03-23T07:57:43.035Z,7.13
2019-03-23T08:00:15.908Z,8.10
2019-03-23T08:02:42.177Z,7.83
2019-03-23T08:05:08.723Z,7.17
2019-03-23T08:07:35.185Z,8.77
2019-03-23T08:10:02.551Z,8.03
2019-03-23T08:12:29.225Z,8.27
2019-03-23T08:14:55.487Z,8.13
2019-03-23T08:17:21.798Z,7.70
2019-03-23T08:19:48.052Z,7.93
2019-03-23T08:22:14.308Z,7.33
2019-03-23T08:24:40.593Z,8.00
2019-03-23T08:27:06.838Z,8.47
2019-03-23T08:29:33.184Z,9.10
2019-03-23T08:31:59.450Z,10.07
2019-03-23T08:34:25.742Z,9.03
2019-03-23T08:36:52.026Z,9.37
2019-03-23T08:39:18.304Z,10.30
2019-03-23T08:41:44.566Z,8.57
2019-03-23T08:44:10.859Z,10.43
2019-03-23T08:46:37.109Z,9.93
2019-03-23T08:49:04.716Z,9.03
2019-03-23T08:51:31.021Z,9.97
2019-03-23T08:53:57.406Z,11.50
2019-03-23T08:56:23.687Z,11.53
2019-03-23T08:58:49.655Z,12.97
2019-03-23T09:01:16.022Z,10.90
2019-03-23T09:03:52.000Z,11.10
2019-03-23T09:06:10.491Z,12.77
2019-03-23T09:08:36.824Z,13.73
2019-03-23T09:11:03.244Z,14.20
2019-03-23T09:13:39.988Z,13.37
2019-03-23T09:15:57.717Z,13.17
2019-03-23T09:18:24.077Z,12.80
2019-03-23T09:20:50.496Z,13.87
2019-03-23T09:23:16.766Z,16.67
2019-03-23T09:25:45.515Z,17.60
2019-03-23T09:28:11.357Z,16.73
2019-03-23T09:30:37.638Z,17.03
2019-03-23T09:33:04.057Z,18.40
2019-03-23T09:35:31.484Z,18.07
2019-03-23T09:37:57.822Z,19.57
2019-03-23T09:40:24.532Z,18.60
2019-03-23T09:42:50.866Z,17.63
2019-03-23T09:45:17.164Z,15.50
2019-03-23T09:47:43.472Z,18.70
2019-03-23T09:50:10.484Z,17.00
2019-03-23T09:52:36.869Z,18.17
2019-03-23T09:55:06.379Z,19.53
2019-03-23T09:57:32.777Z,17.73
2019-03-23T09:59:59.123Z,15.97
2019-03-23T10:02:25.744Z,17.73
2019-03-23T10:04:52.513Z,17.77
2019-03-23T10:07:19.270Z,19.83
2019-03-23T10:09:45.975Z,20.13
2019-03-23T10:12:12.296Z,20.43
2019-03-23T10:14:38.643Z,17.83
2019-03-23T10:17:05.209Z,18.00
2019-03-23T10:19:31.726Z,16.97
2019-03-23T10:21:58.001Z,19.33
2019-03-23T10:24:25.784Z,18.90
2019-03-23T10:26:53.639Z,20.23
2019-03-23T10:29:19.915Z,21.90
2019-03-23T10:31:46.213Z,20.53
2019-03-23T10:34:12.666Z,20.80
2019-03-23T10:36:39.394Z,20.23
2019-03-23T10:39:05.712Z,21.27
2019-03-23T10:41:31.980Z,20.10
2019-03-23T10:43:58.268Z,20.33
2019-03-23T10:46:29.209Z,19.83
2019-03-23T10:48:55.515Z,20.20
2019-03-23T10:51:21.828Z,18.23
2019-03-23T10:53:48.108Z,23.17
2019-03-23T10:56:16.756Z,20.80
2019-03-23T10:58:43.509Z,19.47
2019-03-23T11:01:09.784Z,19.93
2019-03-23T11:03:36.341Z,21.37
2019-03-23T11:06:02.714Z,22.03
2019-03-23T11:08:29.262Z,20.47
2019-03-23T11:10:55.601Z,23.37
2019-03-23T11:13:21.929Z,23.30
2019-03-23T11:15:48.408Z,20.20
2019-03-23T11:18:14.709Z,21.60
2019-03-23T11:20:41.007Z,20.37
2019-03-23T11:23:07.608Z,20.67
2019-03-23T11:25:34.040Z,21.77
2019-03-23T11:28:00.297Z,20.07
2019-03-23T11:30:26.590Z,20.50
2019-03-23T11:32:52.885Z,19.30
2019-03-23T11:35:19.344Z,21.93
2019-03-23T11:37:45.861Z,20.50
2019-03-23T11:40:13.060Z,18.27
2019-03-23T11:42:49.406Z,19.83
2019-03-23T11:45:10.445Z,20.73
2019-03-23T11:47:36.939Z,23.17
2019-03-23T11:50:03.915Z,21.90
2019-03-23T11:52:30.400Z,20.33
2019-03-23T11:54:56.839Z,19.77
2019-03-23T11:57:23.098Z,19.90
2019-03-23T11:59:49.429Z,20.57
2019-03-23T12:02:15.877Z,21.23
2019-03-23T12:04:47.660Z,19.60
2019-03-23T12:07:13.893Z,19.20
2019-03-23T12:09:40.207Z,16.50
2019-03-23T12:12:06.609Z,20.37
2019-03-23T12:14:32.870Z,16.93
2019-03-23T12:17:00.581Z,19.33
2019-03-23T12:19:26.840Z,17.90
2019-03-23T12:21:53.144Z,18.90
2019-03-23T12:24:19.413Z,16.93
2019-03-23T12:26:45.742Z,17.80
2019-03-23T12:29:12.112Z,20.00
2019-03-23T12:31:38.389Z,17.63
2019-03-23T12:34:04.694Z,19.10
2019-03-23T12:36:30.996Z,18.30
2019-03-23T12:38:57.244Z,19.33
2019-03-23T12:41:23.655Z,17.70
2019-03-23T12:43:50.023Z,19.70
2019-03-23T12:46:16.380Z,19.70
2019-03-23T12:48:42.664Z,18.07
2019-03-23T12:51:08.985Z,19.00
2019-03-23T12:53:35.235Z,19.77
2019-03-23T12:56:01.615Z,18.63
2019-03-23T12:58:27.937Z,19.80
2019-03-23T13:00:54.210Z,21.50
2019-03-23T13:03:20.479Z,21.10
2019-03-23T13:05:46.800Z,20.53
2019-03-23T13:08:13.103Z,22.83
2019-03-23T13:10:39.383Z,18.60
2019-03-23T13:13:05.662Z,21.90
2019-03-23T13:15:32.137Z,20.23
2019-03-23T13:17:58.451Z,19.30
2019-03-23T13:20:24.893Z,22.10
2019-03-23T13:22:51.237Z,23.63
2019-03-23T13:25:17.617Z,23.07
2019-03-23T13:27:46.867Z,20.60
2019-03-23T13:30:15.739Z,26.63
2019-03-23T13:32:42.122Z,22.43
2019-03-23T13:35:15.684Z,22.27
2019-03-23T13:37:42.167Z,23.33
2019-03-23T13:40:11.472Z,19.00
2019-03-23T13:42:37.975Z,20.20
2019-03-23T13:45:05.765Z,22.37
2019-03-23T13:47:32.250Z,22.20
2019-03-23T13:49:58.502Z,21.10
2019-03-23T13:52:24.848Z,23.40
2019-03-23T13:54:51.128Z,25.80
2019-03-23T13:57:17.386Z,21.03
2019-03-23T13:59:44.962Z,22.60
2019-03-23T14:02:11.341Z,23.83
2019-03-23T14:04:38.462Z,23.87
2019-03-23T14:07:04.805Z,22.00
2019-03-23T14:09:31.074Z,25.60
2019-03-23T14:11:57.361Z,25.43
2019-03-23T14:14:23.624Z,25.67
2019-03-23T14:16:50.065Z,26.10
2019-03-23T14:19:16.325Z,24.53
2019-03-23T14:21:42.603Z,22.60
2019-03-23T14:24:08.855Z,21.17
2019-03-23T14:26:35.133Z,22.67
2019-03-23T14:29:01.401Z,23.33
2019-03-23T14:31:27.663Z,27.57
2019-03-23T14:33:53.974Z,24.27
2019-03-23T14:36:20.482Z,22.40
2019-03-23T14:38:46.780Z,23.07
2019-03-23T14:41:13.059Z,20.20
2019-03-23T14:43:39.340Z,23.10
2019-03-23T14:46:05.614Z,20.77
2019-03-23T14:48:31.869Z,23.17
2019-03-23T14:50:58.178Z,22.63
2019-03-23T14:53:24.453Z,22.47
2019-03-23T14:55:50.947Z,20.20
2019-03-23T14:58:17.221Z,21.37
2019-03-23T15:00:43.507Z,26.00
2019-03-23T15:03:09.780Z,22.20
2019-03-23T15:05:36.051Z,23.20
2019-03-23T15:08:02.561Z,22.93
2019-03-23T15:10:28.835Z,21.37
2019-03-23T15:12:55.138Z,20.20
2019-03-23T15:15:21.437Z,20.33
2019-03-23T15:17:49.014Z,20.63
2019-03-23T15:20:15.442Z,19.70
2019-03-23T15:22:41.705Z,19.83
2019-03-23T15:25:08.191Z,20.30
2019-03-23T15:27:34.453Z,20.10
2019-03-23T15:30:00.959Z,21.10
2019-03-23T15:32:27.216Z,21.20
2019-03-23T15:34:53.516Z,18.87
2019-03-23T15:37:19.769Z,22.43
2019-03-23T15:39:46.029Z,19.07
2019-03-23T15:42:12.582Z,18.20
2019-03-23T15:44:38.924Z,18.93
2019-03-23T15:47:05.206Z,19.30
2019-03-23T15:49:31.587Z,21.87
2019-03-23T15:51:57.848Z,24.53
2019-03-23T15:54:24.171Z,27.13
2019-03-23T15:56:50.448Z,23.47
2019-03-23T15:59:16.754Z,23.20
2019-03-23T16:01:43.138Z,24.23
2019-03-23T16:04:09.394Z,26.40
2019-03-23T16:06:35.744Z,27.67
2019-03-23T16:09:02.986Z,25.27
2019-03-23T16:11:29.268Z,26.37
2019-03-23T16:13:55.533Z,24.43
2019-03-23T16:16:21.840Z,26.17
2019-03-23T16:18:48.146Z,22.37
2019-03-23T16:21:14.431Z,20.83
2019-03-23T16:23:40.714Z,23.67
2019-03-23T16:26:07.081Z,28.57
2019-03-23T16:28:33.354Z,27.03
2019-03-23T16:30:59.640Z,28.50
2019-03-23T16:33:25.955Z,27.20
2019-03-23T16:35:52.347Z,25.73
2019-03-23T16:38:18.625Z,25.97
2019-03-23T16:40:44.898Z,27.30
2019-03-23T16:43:11.540Z,28.23
2019-03-23T16:45:37.845Z,26.60
2019-03-23T16:48:04.239Z,27.47
2019-03-23T16:50:30.603Z,25.97
2019-03-23T16:52:56.870Z,22.50
2019-03-23T16:55:23.163Z,21.47
2019-03-23T16:57:49.452Z,22.17
2019-03-23T17:00:21.457Z,22.20
2019-03-23T17:02:47.715Z,21.03
2019-03-23T17:05:14.366Z,21.40
2019-03-23T17:07:40.821Z,19.90
2019-03-23T17:10:07.824Z,22.03
2019-03-23T17:12:34.492Z,20.87
2019-03-23T17:15:01.420Z,21.00
2019-03-23T17:17:27.791Z,29.57
2019-03-23T17:19:54.238Z,23.63
2019-03-23T17:22:20.527Z,23.63
2019-03-23T17:24:46.835Z,23.30
2019-03-23T17:27:13.284Z,24.10
2019-03-23T17:29:39.730Z,25.00
2019-03-23T17:32:06.119Z,24.07
2019-03-23T17:34:32.521Z,22.83
2019-03-23T17:36:58.928Z,20.87
2019-03-23T17:39:25.226Z,22.73
2019-03-23T17:41:51.602Z,24.10
2019-03-23T17:44:17.936Z,23.73
2019-03-23T17:46:44.236Z,22.33
2019-03-23T17:49:10.524Z,22.93
2019-03-23T17:51:36.893Z,23.73
2019-03-23T17:54:03.176Z,22.40
2019-03-23T17:56:29.528Z,23.00
2019-03-23T17:58:55.849Z,22.87
2019-03-23T18:01:22.156Z,22.30
2019-03-23T18:03:48.408Z,25.20
2019-03-23T18:06:14.697Z,23.53
2019-03-23T18:08:40.965Z,23.30
2019-03-23T18:11:07.224Z,22.27
2019-03-23T18:13:33.504Z,19.87
2019-03-23T18:15:59.920Z,18.43
2019-03-23T18:18:26.193Z,22.20
2019-03-23T18:20:52.579Z,21.77
2019-03-23T18:23:19.065Z,24.20
2019-03-23T18:25:45.357Z,24.40
2019-03-23T18:28:11.611Z,23.90
2019-03-23T18:30:40.979Z,23.30
2019-03-23T18:33:07.508Z,23.03
2019-03-23T18:35:34.046Z,23.30
2019-03-23T18:38:01.608Z,23.83
2019-03-23T18:40:28.093Z,23.63
2019-03-23T18:42:54.362Z,24.83
2019-03-23T18:45:20.637Z,24.63
2019-03-23T18:47:46.893Z,28.40
2019-03-23T18:50:13.232Z,25.20
2019-03-23T18:52:39.513Z,24.60
2019-03-23T18:55:06.076Z,28.23
2019-03-23T18:57:32.347Z,28.63
2019-03-23T18:59:58.608Z,27.90
2019-03-23T19:02:24.884Z,25.80
2019-03-23T19:04:51.153Z,29.37
2019-03-23T19:07:17.469Z,29.03
2019-03-23T19:09:43.779Z,29.40
2019-03-23T19:12:10.061Z,28.47
2019-03-23T19:14:36.331Z,29.60
2019-03-23T19:17:02.831Z,30.47
2019-03-23T19:19:29.082Z,31.20
2019-03-23T19:21:55.350Z,29.97
2019-03-23T19:24:21.676Z,32.00
2019-03-23T19:26:47.949Z,32.37
2019-03-23T19:29:14.219Z,33.40
2019-03-23T19:31:40.514Z,35.10
2019-03-23T19:34:06.783Z,35.53
2019-03-23T19:36:33.072Z,35.43
2019-03-23T19:38:59.325Z,35.17
2019-03-23T19:41:25.640Z,34.37
2019-03-23T19:43:52.089Z,34.60
2019-03-23T19:46:18.417Z,34.60
2019-03-23T19:48:44.692Z,33.57
2019-03-23T19:51:10.976Z,33.00
2019-03-23T19:53:37.278Z,33.30
2019-03-23T19:56:05.574Z,30.37
2019-03-23T19:58:31.973Z,29.70
2019-03-23T20:00:58.344Z,29.40
2019-03-23T20:03:24.657Z,30.77
2019-03-23T20:05:50.933Z,29.20
2019-03-23T20:08:18.122Z,29.87
2019-03-23T20:10:44.627Z,27.13
2019-03-23T20:13:10.985Z,27.57
2019-03-23T20:15:37.447Z,26.87
2019-03-23T20:18:04.554Z,27.20
2019-03-23T20:20:30.899Z,28.77
2019-03-23T20:22:57.308Z,29.23
2019-03-23T20:25:24.105Z,28.93
2019-03-23T20:27:51.454Z,30.10
2019-03-23T20:30:18.356Z,27.97
2019-03-23T20:32:44.736Z,31.37
2019-03-23T20:35:11.548Z,28.10
2019-03-23T20:37:37.812Z,28.03
2019-03-23T20:40:06.519Z,28.30
2019-03-23T20:42:32.797Z,30.00
2019-03-23T20:44:59.366Z,28.40
2019-03-23T20:47:25.660Z,29.07
2019-03-23T20:49:52.205Z,28.20
2019-03-23T20:52:18.487Z,28.77
2019-03-23T20:54:45.087Z,28.10
2019-03-23T20:57:11.383Z,28.60
2019-03-23T20:59:37.667Z,27.40
2019-03-23T21:02:03.999Z,28.70
2019-03-23T21:04:30.925Z,25.87
2019-03-23T21:06:57.413Z,27.83
2019-03-23T21:09:23.878Z,28.40
2019-03-23T21:11:50.175Z,26.60
2019-03-23T21:14:20.391Z,29.83
2019-03-23T21:16:47.767Z,26.63
2019-03-23T21:19:18.439Z,26.77
2019-03-23T21:21:56.147Z,25.57
2019-03-23T21:24:22.649Z,27.50
2019-03-23T21:26:48.963Z,27.40
2019-03-23T21:29:15.295Z,24.97
2019-03-23T21:31:41.626Z,22.67
2019-03-23T21:34:07.874Z,25.07
2019-03-23T21:36:34.284Z,25.67
2019-03-23T21:39:01.104Z,27.00
2019-03-23T21:41:27.445Z,25.30
2019-03-23T21:43:54.512Z,24.70
2019-03-23T21:46:20.767Z,24.93
2019-03-23T21:48:47.022Z,26.53
2019-03-23T21:51:13.302Z,25.27
2019-03-23T21:53:39.684Z,24.53
2019-03-23T21:56:05.948Z,25.70
2019-03-23T21:58:32.293Z,24.80
2019-03-23T22:00:58.553Z,24.33
2019-03-23T22:03:24.858Z,25.83
2019-03-23T22:05:51.203Z,24.30
2019-03-23T22:08:17.492Z,23.90
2019-03-23T22:10:43.771Z,23.93
2019-03-23T22:13:10.085Z,23.87
2019-03-23T22:15:36.542Z,25.23
2019-03-23T22:18:03.235Z,24.20
2019-03-23T22:20:29.523Z,22.93
2019-03-23T22:22:55.782Z,21.00
2019-03-23T22:25:22.077Z,21.57
2019-03-23T22:27:48.356Z,21.27
2019-03-23T22:30:15.426Z,23.30
2019-03-23T22:32:41.723Z,20.77
2019-03-23T22:35:08.677Z,20.90
2019-03-23T22:37:34.945Z,21.23
2019-03-23T22:40:04.672Z,20.37
2019-03-23T22:42:30.996Z,18.63
2019-03-23T22:44:57.280Z,18.17
2019-03-23T22:47:23.606Z,20.70
2019-03-23T22:49:49.953Z,19.53
2019-03-23T22:52:16.233Z,19.50
2019-03-23T22:54:42.518Z,22.03
2019-03-23T22:57:08.781Z,18.73
2019-03-23T22:59:35.043Z,19.77
2019-03-23T23:02:01.571Z,18.97
2019-03-23T23:04:27.949Z,19.60
2019-03-23T23:06:54.244Z,19.07
2019-03-23T23:09:20.751Z,18.63
2019-03-23T23:11:47.005Z,17.90
2019-03-23T23:14:13.312Z,19.83
2019-03-23T23:16:50.584Z,18.20
2019-03-23T23:19:16.878Z,18.40
2019-03-23T23:21:43.625Z,18.60
2019-03-23T23:24:09.927Z,17.60
2019-03-23T23:26:38.121Z,19.10
2019-03-23T23:29:04.366Z,18.77
2019-03-23T23:31:32.797Z,18.13
2019-03-23T23:33:59.121Z,19.50
2019-03-23T23:36:25.458Z,17.80
2019-03-23T23:38:52.622Z,17.87
2019-03-23T23:41:19.142Z,17.87
2019-03-23T23:43:45.419Z,16.93
2019-03-23T23:46:11.696Z,18.07
2019-03-23T23:48:37.974Z,17.37
2019-03-23T23:51:04.398Z,17.00
2019-03-23T23:53:30.655Z,17.52
2019-03-23T23:55:56.945Z,17.13
2019-03-23T23:58:23.262Z,17.10
